createdAt,value
2023-01-13T00:01:27.386Z,7.46
2023-01-13T00:03:56.654Z,7.44
2023-01-13T00:06:26.295Z,7.41
2023-01-13T00:08:55.251Z,7.40
2023-01-13T00:11:24.587Z,7.39
2023-01-13T00:13:52.482Z,7.36
2023-01-13T00:16:21.432Z,7.35
2023-01-13T00:18:51.402Z,7.34
2023-01-13T00:21:26.221Z,7.33
2023-01-13T00:23:55.403Z,7.32
2023-01-13T00:26:26.321Z,7.35
2023-01-13T00:28:59.082Z,7.35
2023-01-13T00:31:29.143Z,7.36
2023-01-13T00:33:59.145Z,7.40
2023-01-13T00:36:28.014Z,7.39
2023-01-13T00:38:56.500Z,7.36
2023-01-13T00:41:26.269Z,7.36
2023-01-13T00:43:54.156Z,7.39
2023-01-13T00:46:23.022Z,7.37
2023-01-13T00:48:51.814Z,7.35
2023-01-13T00:51:22.207Z,7.35
2023-01-13T00:53:51.998Z,7.36
2023-01-13T00:56:39.187Z,7.37
2023-01-13T00:59:11.795Z,7.37
2023-01-13T01:01:40.570Z,7.35
2023-01-13T01:04:08.893Z,7.35
2023-01-13T01:06:36.897Z,7.33
2023-01-13T01:09:05.715Z,7.33
2023-01-13T01:11:34.495Z,7.33
2023-01-13T01:14:04.109Z,7.33
2023-01-13T01:16:34.016Z,7.33
2023-01-13T01:19:02.588Z,7.32
2023-01-13T01:21:31.826Z,7.31
2023-01-13T01:24:02.182Z,7.30
2023-01-13T01:26:31.564Z,7.31
2023-01-13T01:28:59.884Z,7.31
2023-01-13T01:31:33.612Z,7.29
2023-01-13T01:34:01.696Z,7.30
2023-01-13T01:36:30.395Z,7.29
2023-01-13T01:39:00.061Z,7.28
2023-01-13T01:41:32.003Z,7.27
2023-01-13T01:44:06.794Z,7.27
2023-01-13T01:46:42.248Z,7.27
2023-01-13T01:49:18.173Z,7.27
2023-01-13T01:51:59.002Z,7.26
2023-01-13T01:54:34.343Z,7.28
2023-01-13T01:57:02.383Z,7.24
2023-01-13T01:59:33.762Z,7.25
2023-01-13T02:02:02.321Z,7.25
2023-01-13T02:04:35.006Z,7.24
2023-01-13T02:07:04.073Z,7.24
2023-01-13T02:09:33.444Z,7.26
2023-01-13T02:12:33.876Z,7.25
2023-01-13T02:15:16.232Z,7.24
2023-01-13T02:17:53.480Z,7.23
2023-01-13T02:21:09.261Z,7.24
2023-01-13T02:24:11.858Z,7.23
2023-01-13T02:27:05.969Z,7.20
2023-01-13T02:30:08.348Z,7.18
2023-01-13T02:32:49.157Z,7.17
2023-01-13T02:35:30.329Z,7.16
2023-01-13T02:38:00.129Z,7.15
2023-01-13T02:40:46.577Z,7.15
2023-01-13T02:43:55.157Z,7.16
2023-01-13T02:46:31.184Z,7.14
2023-01-13T02:49:06.302Z,7.13
2023-01-13T02:51:35.649Z,7.13
2023-01-13T02:54:14.022Z,7.13
2023-01-13T02:56:45.912Z,7.13
2023-01-13T02:59:14.751Z,7.13
2023-01-13T03:01:43.571Z,7.15
2023-01-13T03:04:35.506Z,7.16
2023-01-13T03:07:13.603Z,7.16
2023-01-13T03:10:00.556Z,7.18
2023-01-13T03:12:44.364Z,7.23
2023-01-13T03:15:28.503Z,7.21
2023-01-13T03:18:31.629Z,7.21
2023-01-13T03:21:21.481Z,7.24
2023-01-13T03:24:16.683Z,7.30
2023-01-13T03:26:54.262Z,7.32
2023-01-13T03:29:27.947Z,7.33
2023-01-13T03:32:05.847Z,7.30
2023-01-13T03:34:45.960Z,7.24
2023-01-13T03:37:16.950Z,7.18
2023-01-13T03:39:50.300Z,7.25
2023-01-13T03:42:23.204Z,7.19
2023-01-13T03:44:57.774Z,7.21
2023-01-13T03:47:39.421Z,7.20
2023-01-13T03:50:26.429Z,7.21
2023-01-13T03:53:03.839Z,7.23
2023-01-13T03:55:36.227Z,7.26
2023-01-13T03:58:14.507Z,7.25
2023-01-13T04:00:58.363Z,7.25
2023-01-13T04:03:32.013Z,7.25
2023-01-13T04:06:26.777Z,7.24
2023-01-13T04:09:08.103Z,7.24
2023-01-13T04:11:42.637Z,7.25
2023-01-13T04:14:13.081Z,7.23
2023-01-13T04:16:41.809Z,7.24
2023-01-13T04:19:09.735Z,7.23
2023-01-13T04:21:37.610Z,7.20
2023-01-13T04:24:05.612Z,7.20
2023-01-13T04:26:33.407Z,7.20
2023-01-13T04:29:01.341Z,7.20
2023-01-13T04:31:29.294Z,7.20
2023-01-13T04:33:57.112Z,7.18
2023-01-13T04:36:27.742Z,7.16
2023-01-13T04:38:55.765Z,7.15
2023-01-13T04:41:23.521Z,7.15
2023-01-13T04:43:51.636Z,7.16
2023-01-13T04:46:19.724Z,7.17
2023-01-13T04:48:47.680Z,7.17
2023-01-13T04:51:15.464Z,7.20
2023-01-13T04:53:43.345Z,7.20
2023-01-13T04:56:11.245Z,7.22
2023-01-13T04:58:39.100Z,7.24
2023-01-13T05:01:07.062Z,7.25
2023-01-13T05:03:34.944Z,7.23
2023-01-13T05:06:02.981Z,7.28
2023-01-13T05:08:30.952Z,7.30
2023-01-13T05:11:02.035Z,7.30
2023-01-13T05:13:48.530Z,7.31
2023-01-13T05:16:34.997Z,7.32
2023-01-13T05:19:02.963Z,7.33
2023-01-13T05:21:49.527Z,7.32
2023-01-13T05:24:36.234Z,7.32
2023-01-13T05:27:04.149Z,7.29
2023-01-13T05:29:32.049Z,7.29
2023-01-13T05:32:02.615Z,7.31
2023-01-13T05:34:32.461Z,7.31
2023-01-13T05:37:00.928Z,7.30
2023-01-13T05:39:48.892Z,7.31
2023-01-13T05:42:35.483Z,7.31
2023-01-13T05:45:03.584Z,7.30
2023-01-13T05:47:32.621Z,7.29
2023-01-13T05:50:00.572Z,7.29
2023-01-13T05:52:29.095Z,7.29
2023-01-13T05:54:56.827Z,7.29
2023-01-13T05:57:24.696Z,7.29
2023-01-13T05:59:52.588Z,7.29
2023-01-13T06:02:20.487Z,7.30
2023-01-13T06:04:48.548Z,7.33
2023-01-13T06:07:16.375Z,7.34
2023-01-13T06:09:44.777Z,7.36
2023-01-13T06:12:13.615Z,7.36
2023-01-13T06:14:41.415Z,7.36
2023-01-13T06:17:12.618Z,7.36
2023-01-13T06:19:41.682Z,7.37
2023-01-13T06:22:32.994Z,7.35
2023-01-13T06:25:02.200Z,7.40
2023-01-13T06:27:30.428Z,7.40
2023-01-13T06:29:58.488Z,7.41
2023-01-13T06:32:32.674Z,7.42
2023-01-13T06:35:05.722Z,7.41
2023-01-13T06:37:35.693Z,7.40
2023-01-13T06:40:06.995Z,7.39
2023-01-13T06:42:55.966Z,7.38
2023-01-13T06:45:26.259Z,7.39
2023-01-13T06:47:54.803Z,7.37
2023-01-13T06:50:22.749Z,7.35
2023-01-13T06:52:50.577Z,7.31
2023-01-13T06:55:18.466Z,7.31
2023-01-13T06:57:57.615Z,7.30
2023-01-13T07:00:26.562Z,7.33
2023-01-13T07:02:54.606Z,7.36
2023-01-13T07:05:22.567Z,7.33
2023-01-13T07:07:50.345Z,7.36
2023-01-13T07:10:22.546Z,7.34
2023-01-13T07:13:09.317Z,7.33
2023-01-13T07:15:37.199Z,7.36
2023-01-13T07:18:04.991Z,7.36
2023-01-13T07:20:34.035Z,7.37
2023-01-13T07:23:02.135Z,7.40
2023-01-13T07:25:30.045Z,7.41
2023-01-13T07:27:58.431Z,7.54
2023-01-13T07:30:26.330Z,7.59
2023-01-13T07:32:54.202Z,7.60
2023-01-13T07:35:23.616Z,7.66
2023-01-13T07:37:51.434Z,7.68
2023-01-13T07:40:19.224Z,7.70
2023-01-13T07:43:05.939Z,7.72
2023-01-13T07:45:33.838Z,7.73
2023-01-13T07:48:01.869Z,7.76
2023-01-13T07:50:29.710Z,7.68
2023-01-13T07:52:59.037Z,7.71
2023-01-13T07:55:27.015Z,7.75
2023-01-13T07:57:54.838Z,7.81
2023-01-13T08:00:23.415Z,7.74
2023-01-13T08:02:51.429Z,7.78
2023-01-13T08:05:19.573Z,7.79
2023-01-13T08:07:47.462Z,7.84
2023-01-13T08:10:15.463Z,7.92
2023-01-13T08:13:01.744Z,7.97
2023-01-13T08:15:32.422Z,7.99
2023-01-13T08:18:00.959Z,8.01
2023-01-13T08:20:28.856Z,8.04
2023-01-13T08:22:58.439Z,8.06
2023-01-13T08:25:28.171Z,8.09
2023-01-13T08:27:57.184Z,8.11
2023-01-13T08:30:24.981Z,8.14
2023-01-13T08:32:53.853Z,8.15
2023-01-13T08:35:22.422Z,8.16
2023-01-13T08:37:51.153Z,8.16
2023-01-13T08:40:20.955Z,8.17
2023-01-13T08:42:49.121Z,8.21
2023-01-13T08:45:16.960Z,8.23
2023-01-13T08:47:44.847Z,8.28
2023-01-13T08:50:12.911Z,8.32
2023-01-13T08:52:41.431Z,8.41
2023-01-13T08:55:10.095Z,8.53
2023-01-13T08:57:38.340Z,8.64
2023-01-13T09:00:07.569Z,8.72
2023-01-13T09:02:36.034Z,8.80
2023-01-13T09:05:07.318Z,8.90
2023-01-13T09:07:37.102Z,8.98
2023-01-13T09:10:07.798Z,9.10
2023-01-13T09:12:54.836Z,9.20
2023-01-13T09:15:22.910Z,9.27
2023-01-13T09:17:50.809Z,9.34
2023-01-13T09:20:18.788Z,9.37
2023-01-13T09:22:46.664Z,9.41
2023-01-13T09:25:14.542Z,9.45
2023-01-13T09:27:42.378Z,9.47
2023-01-13T09:30:11.147Z,9.45
2023-01-13T09:32:39.079Z,9.43
2023-01-13T09:35:07.866Z,9.40
2023-01-13T09:37:39.419Z,9.40
2023-01-13T09:40:18.508Z,9.41
2023-01-13T09:43:10.606Z,9.41
2023-01-13T09:46:01.611Z,9.47
2023-01-13T09:48:52.179Z,9.56
2023-01-13T09:51:30.572Z,9.62
2023-01-13T09:54:07.093Z,9.64
2023-01-13T09:56:34.922Z,9.65
2023-01-13T09:59:03.233Z,9.67
2023-01-13T10:01:42.001Z,9.66
2023-01-13T10:04:15.356Z,9.67
2023-01-13T10:06:50.093Z,9.62
2023-01-13T10:09:25.789Z,9.60
2023-01-13T10:12:16.798Z,9.58
2023-01-13T10:14:55.012Z,9.58
2023-01-13T10:17:33.760Z,9.57
2023-01-13T10:20:08.401Z,9.54
2023-01-13T10:22:52.907Z,9.48
2023-01-13T10:25:36.091Z,9.45
2023-01-13T10:28:13.757Z,9.42
2023-01-13T10:30:44.196Z,9.42
2023-01-13T10:33:18.439Z,9.39
2023-01-13T10:35:54.461Z,9.39
2023-01-13T10:38:51.449Z,9.41
2023-01-13T10:41:27.791Z,9.44
2023-01-13T10:44:07.211Z,9.48
2023-01-13T10:46:52.914Z,9.61
2023-01-13T10:49:32.661Z,9.72
2023-01-13T10:52:02.298Z,9.80
2023-01-13T10:54:30.773Z,9.80
2023-01-13T10:57:35.576Z,9.79
2023-01-13T11:00:05.529Z,9.74
2023-01-13T11:02:35.895Z,9.74
2023-01-13T11:05:24.369Z,9.76
2023-01-13T11:07:55.057Z,9.76
2023-01-13T11:10:27.507Z,9.78
2023-01-13T11:13:05.758Z,9.77
2023-01-13T11:15:55.540Z,9.76
2023-01-13T11:19:12.098Z,9.75
2023-01-13T11:22:07.654Z,9.81
2023-01-13T11:24:40.143Z,9.84
2023-01-13T11:27:20.588Z,9.85
2023-01-13T11:30:29.783Z,9.85
2023-01-13T11:33:15.949Z,9.82
2023-01-13T11:36:01.472Z,9.82
2023-01-13T11:38:51.321Z,9.83
2023-01-13T11:42:08.560Z,9.85
2023-01-13T11:44:43.610Z,9.82
2023-01-13T11:47:12.845Z,9.82
2023-01-13T11:49:41.026Z,9.82
2023-01-13T11:52:22.075Z,9.82
2023-01-13T11:54:59.018Z,9.81
2023-01-13T11:57:45.343Z,9.80
2023-01-13T12:00:41.512Z,9.79
2023-01-13T12:03:32.332Z,9.80
2023-01-13T12:06:13.903Z,9.75
2023-01-13T12:09:10.011Z,9.70
2023-01-13T12:12:15.535Z,9.66
2023-01-13T12:15:08.051Z,9.65
2023-01-13T12:18:14.322Z,9.58
2023-01-13T12:20:58.656Z,9.53
2023-01-13T12:23:32.507Z,9.51
2023-01-13T12:26:06.811Z,9.50
2023-01-13T12:28:46.509Z,9.49
2023-01-13T12:31:19.002Z,9.47
2023-01-13T12:34:10.239Z,9.43
2023-01-13T12:36:49.638Z,9.36
2023-01-13T12:39:40.144Z,9.29
2023-01-13T12:42:35.998Z,9.21
2023-01-13T12:45:09.802Z,9.05
2023-01-13T12:47:48.860Z,8.94
2023-01-13T12:50:22.996Z,8.82
2023-01-13T12:52:51.734Z,8.66
2023-01-13T12:55:27.307Z,8.51
2023-01-13T12:58:16.522Z,8.44
2023-01-13T13:00:45.376Z,8.34
2023-01-13T13:03:14.025Z,8.26
2023-01-13T13:06:01.535Z,8.22
2023-01-13T13:09:03.761Z,8.18
2023-01-13T13:12:00.408Z,8.16
2023-01-13T13:14:37.314Z,8.15
2023-01-13T13:17:28.395Z,8.14
2023-01-13T13:19:58.168Z,8.11
2023-01-13T13:22:28.792Z,8.15
2023-01-13T13:24:57.600Z,8.18
2023-01-13T13:27:40.774Z,8.21
2023-01-13T13:30:09.501Z,8.24
2023-01-13T13:33:00.358Z,8.28
2023-01-13T13:36:05.764Z,8.35
2023-01-13T13:39:38.887Z,8.38
2023-01-13T13:42:54.376Z,8.36
2023-01-13T13:45:43.749Z,8.31
2023-01-13T13:48:23.673Z,8.31
2023-01-13T13:51:01.837Z,8.29
2023-01-13T13:53:41.487Z,8.27
2023-01-13T13:56:20.858Z,8.27
2023-01-13T13:58:50.424Z,8.29
2023-01-13T14:01:29.827Z,8.28
2023-01-13T14:04:11.106Z,8.25
2023-01-13T14:06:50.227Z,8.20
2023-01-13T14:09:19.501Z,8.13
2023-01-13T14:12:00.966Z,8.09
2023-01-13T14:14:29.470Z,8.09
2023-01-13T14:16:58.822Z,8.09
2023-01-13T14:19:31.271Z,8.07
2023-01-13T14:22:05.027Z,8.04
2023-01-13T14:24:33.128Z,7.99
2023-01-13T14:27:17.835Z,7.96
2023-01-13T14:29:45.747Z,7.95
2023-01-13T14:32:20.095Z,7.95
2023-01-13T14:34:48.225Z,7.93
2023-01-13T14:37:24.018Z,7.93
2023-01-13T14:39:51.829Z,7.90
2023-01-13T14:42:21.637Z,7.90
2023-01-13T14:44:51.102Z,7.91
2023-01-13T14:47:29.567Z,7.92
2023-01-13T14:50:06.190Z,7.92
2023-01-13T14:52:46.326Z,7.92
2023-01-13T14:55:32.581Z,7.92
2023-01-13T14:58:22.216Z,7.90
2023-01-13T15:00:51.608Z,7.85
2023-01-13T15:03:21.385Z,7.86
2023-01-13T15:05:52.218Z,7.87
2023-01-13T15:08:28.779Z,7.85
2023-01-13T15:11:02.427Z,7.87
2023-01-13T15:13:39.697Z,7.89
2023-01-13T15:16:25.243Z,7.86
2023-01-13T15:18:55.158Z,7.83
2023-01-13T15:21:23.780Z,7.79
2023-01-13T15:23:51.977Z,7.68
2023-01-13T15:26:28.939Z,7.55
2023-01-13T15:28:58.439Z,7.46
2023-01-13T15:31:27.958Z,7.36
2023-01-13T15:33:55.932Z,7.28
2023-01-13T15:36:30.749Z,7.23
2023-01-13T15:39:00.247Z,7.17
2023-01-13T15:41:47.054Z,7.09
2023-01-13T15:44:34.617Z,7.02
2023-01-13T15:47:06.889Z,6.98
2023-01-13T15:49:40.782Z,6.93
2023-01-13T15:52:23.913Z,6.85
2023-01-13T15:54:53.631Z,6.79
2023-01-13T15:57:28.886Z,6.74
2023-01-13T16:00:00.689Z,6.70
2023-01-13T16:02:29.855Z,6.67
2023-01-13T16:04:58.050Z,6.64
2023-01-13T16:07:25.904Z,6.61
2023-01-13T16:09:53.834Z,6.57
2023-01-13T16:12:21.737Z,6.52
2023-01-13T16:14:49.610Z,6.47
2023-01-13T16:17:23.909Z,6.43
2023-01-13T16:19:52.120Z,6.37
2023-01-13T16:22:20.269Z,6.33
2023-01-13T16:24:48.510Z,6.30
2023-01-13T16:27:22.388Z,6.28
2023-01-13T16:29:51.915Z,6.27
2023-01-13T16:32:21.136Z,6.26
2023-01-13T16:34:50.079Z,6.26
2023-01-13T16:37:22.094Z,6.25
2023-01-13T16:39:51.057Z,6.22
2023-01-13T16:42:19.898Z,6.19
2023-01-13T16:44:48.667Z,6.18
2023-01-13T16:47:18.132Z,6.13
2023-01-13T16:49:46.727Z,6.10
2023-01-13T16:52:14.704Z,6.07
2023-01-13T16:54:42.503Z,6.04
2023-01-13T16:57:13.524Z,6.00
2023-01-13T16:59:41.465Z,5.98
2023-01-13T17:02:16.349Z,5.95
2023-01-13T17:04:45.271Z,5.94
2023-01-13T17:07:16.960Z,5.90
2023-01-13T17:09:44.811Z,5.87
2023-01-13T17:12:12.797Z,5.87
2023-01-13T17:14:43.260Z,5.84
2023-01-13T17:17:24.401Z,5.81
2023-01-13T17:19:53.713Z,5.79
2023-01-13T17:22:22.186Z,5.75
2023-01-13T17:24:50.124Z,5.74
2023-01-13T17:27:18.743Z,5.71
2023-01-13T17:29:47.059Z,5.70
2023-01-13T17:32:17.183Z,5.69
2023-01-13T17:34:45.698Z,5.65
2023-01-13T17:37:14.546Z,5.63
2023-01-13T17:39:44.570Z,5.59
2023-01-13T17:42:13.607Z,5.56
2023-01-13T17:44:42.124Z,5.52
2023-01-13T17:47:10.112Z,5.47
2023-01-13T17:49:38.068Z,5.44
2023-01-13T17:52:07.143Z,5.42
2023-01-13T17:54:35.152Z,5.41
2023-01-13T17:57:03.090Z,5.40
2023-01-13T17:59:30.934Z,5.36
2023-01-13T18:01:58.891Z,5.34
2023-01-13T18:04:31.013Z,5.33
2023-01-13T18:06:58.945Z,5.28
2023-01-13T18:09:26.768Z,5.24
2023-01-13T18:11:54.695Z,5.19
2023-01-13T18:14:22.645Z,5.18
2023-01-13T18:16:51.466Z,5.16
2023-01-13T18:19:38.125Z,5.12
2023-01-13T18:22:24.496Z,5.07
2023-01-13T18:25:11.304Z,5.05
2023-01-13T18:27:41.613Z,5.00
2023-01-13T18:30:10.365Z,4.98
2023-01-13T18:32:38.201Z,4.96
2023-01-13T18:35:10.473Z,4.93
2023-01-13T18:37:40.548Z,4.88
2023-01-13T18:40:11.411Z,4.87
2023-01-13T18:42:52.182Z,4.85
2023-01-13T18:45:23.198Z,4.80
2023-01-13T18:47:51.760Z,4.80
2023-01-13T18:50:19.680Z,4.79
2023-01-13T18:52:47.576Z,4.81
2023-01-13T18:55:15.519Z,4.83
2023-01-13T18:57:43.712Z,4.84
2023-01-13T19:00:16.182Z,4.85
2023-01-13T19:02:45.221Z,4.85
2023-01-13T19:05:13.882Z,4.84
2023-01-13T19:07:43.472Z,4.84
2023-01-13T19:10:13.024Z,4.84
2023-01-13T19:12:42.226Z,4.81
2023-01-13T19:15:10.536Z,4.80
2023-01-13T19:17:38.572Z,4.77
2023-01-13T19:20:07.304Z,4.75
2023-01-13T19:22:35.940Z,4.71
2023-01-13T19:25:04.994Z,4.67
2023-01-13T19:27:32.839Z,4.62
2023-01-13T19:30:01.819Z,4.58
2023-01-13T19:32:33.359Z,4.55
2023-01-13T19:35:01.313Z,4.53
2023-01-13T19:37:30.573Z,4.53
2023-01-13T19:39:59.731Z,4.51
2023-01-13T19:42:46.935Z,4.47
2023-01-13T19:45:29.504Z,4.45
2023-01-13T19:48:01.849Z,4.42
2023-01-13T19:50:29.993Z,4.42
2023-01-13T19:52:58.006Z,4.42
2023-01-13T19:55:26.075Z,4.39
2023-01-13T19:57:53.906Z,4.35
2023-01-13T20:00:22.008Z,4.36
2023-01-13T20:02:53.297Z,4.37
2023-01-13T20:05:22.728Z,4.39
2023-01-13T20:07:51.328Z,4.37
2023-01-13T20:10:21.714Z,4.37
2023-01-13T20:12:49.610Z,4.39
2023-01-13T20:15:17.628Z,4.42
2023-01-13T20:17:45.824Z,4.46
2023-01-13T20:20:15.847Z,4.48
2023-01-13T20:22:43.998Z,4.52
2023-01-13T20:25:16.726Z,4.55
2023-01-13T20:27:46.705Z,4.57
2023-01-13T20:30:15.318Z,4.65
2023-01-13T20:32:44.435Z,4.70
2023-01-13T20:35:12.388Z,4.74
2023-01-13T20:37:42.398Z,4.77
2023-01-13T20:40:14.575Z,4.80
2023-01-13T20:42:45.221Z,4.82
2023-01-13T20:45:18.076Z,4.84
2023-01-13T20:47:46.441Z,4.87
2023-01-13T20:50:16.252Z,4.90
2023-01-13T20:52:44.677Z,4.89
2023-01-13T20:55:13.553Z,4.92
2023-01-13T20:57:41.887Z,4.94
2023-01-13T21:00:10.972Z,4.95
2023-01-13T21:02:41.190Z,4.95
2023-01-13T21:05:10.425Z,4.98
2023-01-13T21:07:38.427Z,4.99
2023-01-13T21:10:06.666Z,5.01
2023-01-13T21:12:53.353Z,4.99
2023-01-13T21:15:22.766Z,4.95
2023-01-13T21:18:10.565Z,4.95
2023-01-13T21:20:39.415Z,4.90
2023-01-13T21:23:08.172Z,4.89
2023-01-13T21:25:39.544Z,4.85
2023-01-13T21:28:10.522Z,4.79
2023-01-13T21:30:39.272Z,4.76
2023-01-13T21:33:07.668Z,4.77
2023-01-13T21:35:38.414Z,4.76
2023-01-13T21:38:06.253Z,4.78
2023-01-13T21:40:34.074Z,4.76
2023-01-13T21:43:20.892Z,4.75
2023-01-13T21:46:07.456Z,4.75
2023-01-13T21:48:35.526Z,4.73
2023-01-13T21:51:03.484Z,4.71
2023-01-13T21:53:31.266Z,4.67
2023-01-13T21:55:59.120Z,4.63
2023-01-13T21:58:27.002Z,4.68
2023-01-13T22:00:55.170Z,4.70
2023-01-13T22:03:23.195Z,4.67
2023-01-13T22:05:55.823Z,4.68
2023-01-13T22:08:23.611Z,4.67
2023-01-13T22:10:57.372Z,4.66
2023-01-13T22:13:48.042Z,4.62
2023-01-13T22:16:16.412Z,4.63
2023-01-13T22:18:44.487Z,4.61
2023-01-13T22:21:12.718Z,4.60
2023-01-13T22:23:40.595Z,4.59
2023-01-13T22:26:08.920Z,4.58
2023-01-13T22:28:42.659Z,4.57
2023-01-13T22:31:16.208Z,4.61
2023-01-13T22:33:47.214Z,4.60
2023-01-13T22:36:15.942Z,4.63
2023-01-13T22:38:44.879Z,4.64
2023-01-13T22:41:13.160Z,4.66
2023-01-13T22:43:41.261Z,4.69
2023-01-13T22:46:11.941Z,4.69
2023-01-13T22:48:40.752Z,4.67
2023-01-13T22:51:11.689Z,4.67
2023-01-13T22:53:39.947Z,4.65
2023-01-13T22:56:11.708Z,4.71
2023-01-13T22:58:39.545Z,4.72
2023-01-13T23:01:10.026Z,4.75
2023-01-13T23:03:38.463Z,4.78
2023-01-13T23:06:07.034Z,4.73
2023-01-13T23:08:35.824Z,4.77
2023-01-13T23:11:06.169Z,4.74
2023-01-13T23:13:35.061Z,4.76
2023-01-13T23:16:05.851Z,4.81
2023-01-13T23:18:34.372Z,4.88
2023-01-13T23:21:04.762Z,4.88
2023-01-13T23:23:34.104Z,4.85
2023-01-13T23:26:02.812Z,4.83
2023-01-13T23:28:31.130Z,4.80
2023-01-13T23:30:59.162Z,4.76
2023-01-13T23:33:27.293Z,4.71
2023-01-13T23:35:56.818Z,4.69
2023-01-13T23:38:25.409Z,4.68
2023-01-13T23:40:53.650Z,4.65
2023-01-13T23:43:22.338Z,4.59
2023-01-13T23:45:50.355Z,4.53
2023-01-13T23:48:18.732Z,4.51
2023-01-13T23:50:56.858Z,4.45
2023-01-13T23:53:25.084Z,4.37
2023-01-13T23:55:57.298Z,4.37
2023-01-13T23:58:25.105Z,4.35
